Time;durP1;ratioP1;P1;durP2;ratioP2;P2;SDS_P1;SDS_P2;PMS_P1;PMS_P2;Temp;Humidity;BMP_temperature;BMP_pressure;BME280_temperature;BME280_humidity;BME280_pressure;Samples;Min_cycle;Max_cycle;Signal;HPM_P1;HPM_P2
2022/01/07 00:00:43;;;;;;;18.65;6.45;;;;;;;2.98;100.00;101107.84;5115465;28;20402;-53
2022/01/07 00:03:09;;;;;;;13.35;5.63;;;;;;;2.97;100.00;101119.97;5115824;28;20031;-50
2022/01/07 00:05:34;;;;;;;13.60;6.20;;;;;;;2.46;100.00;101027.09;5115784;28;20535;-50
2022/01/07 00:08:00;;;;;;;10.02;5.70;;;;;;;2.93;100.00;101097.41;5115942;28;20040;-51
2022/01/07 00:10:25;;;;;;;12.48;5.13;;;;;;;2.98;100.00;101098.28;5115651;28;20038;-51
2022/01/07 00:12:51;;;;;;;20.48;6.05;;;;;;;2.58;100.00;101034.06;5115633;28;20463;-47
2022/01/07 00:15:17;;;;;;;14.45;5.53;;;;;;;2.99;100.00;101112.16;5097477;28;20039;-51
2022/01/07 00:17:43;;;;;;;13.90;5.00;;;;;;;2.95;100.00;101087.88;5115355;28;20028;-52
2022/01/07 00:20:10;;;;;;;12.90;5.38;;;;;;;2.60;100.00;101033.19;5097477;28;20560;-50
2022/01/07 00:22:37;;;;;;;13.52;5.22;;;;;;;3.00;100.00;101113.91;5115495;28;20394;-53
2022/01/07 00:25:04;;;;;;;12.75;4.70;;;;;;;2.51;100.00;101009.78;5115811;28;20036;-53
2022/01/07 00:27:29;;;;;;;8.68;4.68;;;;;;;2.91;100.00;101080.06;5097177;28;20414;-52
2022/01/07 00:29:55;;;;;;;10.52;5.20;;;;;;;2.98;100.00;101079.25;5115159;28;20031;-49
2022/01/07 00:32:20;;;;;;;9.02;4.35;;;;;;;3.00;100.00;101088.78;5095934;28;20039;-48
2022/01/07 00:34:45;;;;;;;10.23;5.22;;;;;;;2.46;100.00;100976.84;5114935;28;20043;-51
2022/01/07 00:37:11;;;;;;;14.20;5.00;;;;;;;2.96;100.00;101066.22;5097392;28;20491;-54
2022/01/07 00:39:37;;;;;;;8.30;4.43;;;;;;;3.00;100.00;101060.16;5115222;28;20038;-49
2022/01/07 00:42:03;;;;;;;10.88;4.80;;;;;;;2.93;100.00;101047.13;5079944;28;20397;-54
2022/01/07 00:44:28;;;;;;;12.18;5.15;;;;;;;2.95;100.00;101061.88;5096731;28;20032;-46
2022/01/07 00:46:53;;;;;;;9.50;5.20;;;;;;;2.79;100.00;101010.72;5114989;28;20497;-53
2022/01/07 00:49:21;;;;;;;14.07;5.30;;;;;;;3.02;100.00;101047.16;5114883;28;20031;-51
2022/01/07 00:51:50;;;;;;;13.15;5.40;;;;;;;3.07;100.00;101055.81;5114863;28;20036;-51
2022/01/07 00:54:16;;;;;;;13.38;4.82;;;;;;;2.63;100.00;100977.75;5079793;28;20038;-51
2022/01/07 00:56:42;;;;;;;11.55;5.38;;;;;;;3.08;100.00;101048.03;5114703;28;20037;-49
2022/01/07 00:59:08;;;;;;;11.85;5.03;;;;;;;3.16;100.00;101053.25;5096442;28;20169;-51
2022/01/07 01:01:33;;;;;;;9.38;4.97;;;;;;;3.01;100.00;101015.06;5114572;28;20067;-52
2022/01/07 01:03:59;;;;;;;15.75;5.57;;;;;;;2.62;100.00;100939.66;5096505;28;20047;-51
2022/01/07 01:06:24;;;;;;;19.17;5.55;;;;;;;3.14;100.00;101027.25;5114842;28;20489;-49
2022/01/07 01:08:50;;;;;;;14.90;5.43;;;;;;;2.79;100.00;100958.75;5114931;28;20502;-53
2022/01/07 01:11:15;;;;;;;11.32;5.95;;;;;;;3.26;100.00;101029.84;5096380;28;20036;-50
2022/01/07 01:13:41;;;;;;;19.13;6.95;;;;;;;3.18;100.00;101012.50;5114463;28;20035;-51
2022/01/07 01:16:06;;;;;;;14.82;5.80;;;;;;;3.31;100.00;101027.25;5096178;28;20035;-53
2022/01/07 01:18:31;;;;;;;12.75;5.82;;;;;;;3.32;100.00;101036.78;5114533;28;20390;-53
2022/01/07 01:20:57;;;;;;;10.20;6.78;;;;;;;2.86;100.00;100933.63;5114499;28;20035;-51
2022/01/07 01:23:22;;;;;;;15.60;6.68;;;;;;;2.90;100.00;100937.94;5114453;28;20042;-51
2022/01/07 01:25:47;;;;;;;18.15;6.55;;;;;;;3.37;100.00;101029.84;5114385;28;20047;-50
2022/01/07 01:28:13;;;;;;;12.98;6.28;;;;;;;3.35;100.00;101009.03;5114281;28;20043;-49
2022/01/07 01:30:38;;;;;;;17.42;7.13;;;;;;;3.36;100.00;101013.34;5113804;28;20050;-50
2022/01/07 01:33:04;;;;;;;15.27;7.30;;;;;;;3.28;100.00;100991.69;5113916;28;20081;-48
2022/01/07 01:35:29;;;;;;;12.35;6.70;;;;;;;2.78;100.00;100907.59;5095955;28;20067;-49
2022/01/07 01:37:55;;;;;;;13.00;7.00;;;;;;;3.39;100.00;101004.69;5114098;28;20534;-52
2022/01/07 01:40:20;;;;;;;9.30;6.78;;;;;;;3.40;100.00;101007.31;5095812;28;20513;-52
2022/01/07 01:42:47;;;;;;;15.93;7.45;;;;;;;2.99;100.00;100922.34;5095585;28;20119;-52
2022/01/07 01:45:15;;;;;;;15.00;6.97;;;;;;;3.40;100.00;100990.81;5113825;28;20036;-52
2022/01/07 01:47:41;;;;;;;10.35;7.35;;;;;;;2.92;100.00;100897.22;5113590;28;20035;-52
2022/01/07 01:50:07;;;;;;;11.82;7.10;;;;;;;3.42;100.00;100981.25;5113864;28;20118;-52
2022/01/07 01:52:34;;;;;;;13.43;7.40;;;;;;;3.09;100.00;100929.28;5095361;28;20094;-52
2022/01/07 01:54:59;;;;;;;16.17;8.07;;;;;;;3.34;100.00;100957.00;5095497;28;20086;-49
2022/01/07 01:57:25;;;;;;;14.50;8.38;;;;;;;3.44;100.00;100971.75;5113540;28;20387;-52
2022/01/07 01:59:50;;;;;;;12.45;8.10;;;;;;;2.97;100.00;100893.75;5095015;28;20034;-49
2022/01/07 02:02:16;;;;;;;12.70;7.22;;;;;;;3.46;100.00;100962.19;5113609;28;20474;-50
2022/01/07 02:04:41;;;;;;;12.55;7.60;;;;;;;3.50;100.00;100966.53;5095395;28;20121;-47
2022/01/07 02:07:08;;;;;;;12.82;7.57;;;;;;;3.53;100.00;100961.31;5113507;28;20033;-50
2022/01/07 02:09:35;;;;;;;12.10;7.90;;;;;;;3.10;100.00;100879.84;5113304;28;20184;-51
2022/01/07 02:12:03;;;;;;;11.65;7.60;;;;;;;3.20;100.00;100883.31;5113193;28;20059;-47
2022/01/07 02:14:29;;;;;;;10.15;7.05;;;;;;;3.46;100.00;100922.28;5095184;28;20459;-49
2022/01/07 02:16:54;;;;;;;11.88;6.95;;;;;;;3.10;100.00;100866.84;5113342;28;20122;-51
2022/01/07 02:19:19;;;;;;;12.85;7.00;;;;;;;3.62;100.00;100956.06;5095170;28;20035;-54
2022/01/07 02:21:45;;;;;;;13.38;7.68;;;;;;;3.62;100.00;100944.81;5113147;28;20036;-53
2022/01/07 02:24:10;;;;;;;12.18;7.93;;;;;;;3.51;100.00;100924.00;5113205;28;20405;-51
2022/01/07 02:26:36;;;;;;;11.30;7.72;;;;;;;3.33;100.00;100898.00;5094803;28;20031;-51
2022/01/07 02:29:02;;;;;;;12.55;7.05;;;;;;;3.30;100.00;100916.22;5113042;28;20080;-53
2022/01/07 02:31:28;;;;;;;12.48;7.57;;;;;;;3.05;100.00;100865.13;5113423;28;20043;-48
2022/01/07 02:33:54;;;;;;;10.05;7.80;;;;;;;3.12;100.00;100875.53;5113231;28;20047;-49
2022/01/07 02:36:19;;;;;;;8.55;7.38;;;;;;;3.41;100.00;100933.56;5113264;28;20050;-53
2022/01/07 02:38:45;;;;;;;12.80;7.93;;;;;;;3.50;100.00;100932.69;5112824;28;20050;-49
2022/01/07 02:41:10;;;;;;;10.18;7.53;;;;;;;3.50;100.00;100934.44;5112861;28;20195;-50
2022/01/07 02:43:35;;;;;;;8.63;7.68;;;;;;;3.41;100.00;100935.31;5094631;28;20027;-48
2022/01/07 02:46:01;;;;;;;13.82;7.65;;;;;;;3.00;100.00;100848.69;5112827;28;20047;-51
2022/01/07 02:48:26;;;;;;;13.02;8.05;;;;;;;3.50;100.00;100930.09;5094970;28;20039;-48
2022/01/07 02:50:52;;;;;;;10.75;7.50;;;;;;;3.12;100.00;100864.25;5094390;28;20040;-47
2022/01/07 02:53:17;;;;;;;11.27;7.97;;;;;;;3.14;100.00;100849.50;5094549;28;20031;-54
2022/01/07 02:55:43;;;;;;;9.45;7.63;;;;;;;3.08;100.00;100833.91;5094180;28;20035;-50
2022/01/07 02:58:08;;;;;;;11.60;8.77;;;;;;;3.51;100.00;100910.13;5094531;28;20035;-51
2022/01/07 03:00:34;;;;;;;16.67;9.80;;;;;;;3.08;100.00;100815.72;5112835;28;20038;-53
2022/01/07 03:03:01;;;;;;;13.00;9.63;;;;;;;3.58;100.00;100907.50;5113084;28;20031;-49
2022/01/07 03:05:27;;;;;;;11.65;10.43;;;;;;;3.61;100.00;100906.63;5094464;28;20042;-51
2022/01/07 03:07:53;;;;;;;14.82;11.70;;;;;;;3.42;100.00;100878.06;5112716;28;20024;-49
2022/01/07 03:10:30;;;;;;;17.88;11.80;;;;;;;3.68;100.00;100909.19;5112522;28;20030;-53
2022/01/07 03:12:56;;;;;;;16.90;12.82;;;;;;;3.05;100.00;100784.50;5112723;28;20027;-48
2022/01/07 03:15:22;;;;;;;17.58;12.60;;;;;;;3.28;100.00;100816.53;5094560;28;20040;-49
2022/01/07 03:17:48;;;;;;;16.00;12.90;;;;;;;3.21;100.00;100810.47;5094609;28;20036;-47
2022/01/07 03:20:16;;;;;;;17.70;13.13;;;;;;;3.73;100.00;100891.84;5112943;28;20317;-52
2022/01/07 03:22:43;;;;;;;20.10;13.93;;;;;;;3.73;100.00;100890.97;5112510;28;20416;-51
2022/01/07 03:25:09;;;;;;;21.70;13.52;;;;;;;3.77;100.00;100895.28;5112415;28;20055;-54
2022/01/07 03:27:35;;;;;;;20.92;14.52;;;;;;;3.72;100.00;100871.88;5094466;28;20073;-49
2022/01/07 03:30:00;;;;;;;18.45;13.65;;;;;;;3.35;100.00;100800.91;5112656;28;20032;-51
2022/01/07 03:32:26;;;;;;;19.40;13.68;;;;;;;3.80;100.00;100877.03;5112332;28;20481;-52
2022/01/07 03:34:52;;;;;;;18.75;13.43;;;;;;;3.72;100.00;100851.06;5112146;28;20101;-50
2022/01/07 03:37:18;;;;;;;17.73;12.25;;;;;;;3.34;100.00;100775.75;5112259;28;20050;-49
2022/01/07 03:39:43;;;;;;;15.32;12.80;;;;;;;3.38;100.00;100790.50;5112398;28;20040;-54
2022/01/07 03:42:09;;;;;;;15.35;13.15;;;;;;;3.49;100.00;100795.63;5112417;28;20059;-53
2022/01/07 03:44:34;;;;;;;20.67;13.57;;;;;;;3.77;100.00;100840.59;5112227;28;20028;-49
2022/01/07 03:46:59;;;;;;;14.05;11.77;;;;;;;3.69;100.00;100839.78;5094177;28;20034;-49
2022/01/07 03:49:25;;;;;;;13.45;12.05;;;;;;;3.80;100.00;100838.00;5112348;28;20074;-49
2022/01/07 03:51:50;;;;;;;14.15;12.73;;;;;;;3.83;100.00;100817.16;5112245;28;20104;-49
2022/01/07 03:54:16;;;;;;;14.90;12.63;;;;;;;3.88;100.00;100820.63;5112216;28;20027;-49
2022/01/07 03:56:41;;;;;;;14.18;12.07;;;;;;;3.82;100.00;100812.84;5112183;28;20455;-53
2022/01/07 03:59:06;;;;;;;15.68;12.13;;;;;;;3.83;100.00;100809.34;5112346;28;20062;-53
2022/01/07 04:01:31;;;;;;;16.02;13.55;;;;;;;3.87;100.00;100801.50;5093954;28;20031;-50
2022/01/07 04:03:57;;;;;;;15.65;13.05;;;;;;;3.86;100.00;100799.78;5112193;28;20028;-49
2022/01/07 04:06:22;;;;;;;17.50;13.65;;;;;;;3.56;100.00;100747.88;5078101;28;20031;-51
2022/01/07 04:08:48;;;;;;;18.48;12.82;;;;;;;3.85;100.00;100811.06;5097543;28;20040;-52
2022/01/07 04:11:14;;;;;;;15.90;13.05;;;;;;;3.96;100.00;100818.81;5097804;28;20040;-51
2022/01/07 04:13:39;;;;;;;13.77;11.82;;;;;;;3.97;100.00;100815.31;5116068;28;20027;-51
2022/01/07 04:16:05;;;;;;;19.50;13.32;;;;;;;3.94;100.00;100803.19;5115742;28;20089;-52
2022/01/07 04:18:30;;;;;;;16.77;12.68;;;;;;;3.84;100.00;100785.91;5115789;28;20032;-53
2022/01/07 04:20:55;;;;;;;14.60;13.10;;;;;;;3.55;100.00;100724.47;5115634;28;20042;-49
2022/01/07 04:23:21;;;;;;;19.40;15.20;;;;;;;3.52;100.00;100717.56;5115418;28;20049;-52
2022/01/07 04:25:46;;;;;;;17.50;13.15;;;;;;;3.95;100.00;100789.31;5115584;28;20106;-50
2022/01/07 04:28:12;;;;;;;18.25;12.85;;;;;;;4.08;100.00;100802.25;5115652;28;20031;-49
2022/01/07 04:30:40;;;;;;;16.33;13.02;;;;;;;3.63;100.00;100739.16;5096894;28;20084;-55
2022/01/07 04:33:06;;;;;;;16.05;14.02;;;;;;;3.47;100.00;100716.72;5115296;28;20566;-50
2022/01/07 04:35:34;;;;;;;17.30;12.57;;;;;;;3.94;100.00;100800.59;5097014;28;20052;-52
2022/01/07 04:37:59;;;;;;;14.15;11.35;;;;;;;4.00;100.00;100822.28;5115187;28;20551;-51
2022/01/07 04:40:27;;;;;;;13.48;11.18;;;;;;;4.03;100.00;100811.84;5115287;28;20035;-49
2022/01/07 04:42:53;;;;;;;16.67;11.00;;;;;;;3.56;100.00;100718.41;5097365;28;20024;-53
2022/01/07 04:45:18;;;;;;;13.98;12.15;;;;;;;3.65;100.00;100734.81;5079902;28;20035;-53
2022/01/07 04:47:44;;;;;;;15.48;11.23;;;;;;;4.11;100.00;100800.50;5097008;28;20050;-49
2022/01/07 04:50:14;;;;;;;14.20;11.93;;;;;;;3.86;100.00;100752.03;5114918;28;20165;-50
2022/01/07 04:52:44;;;;;;;18.70;13.65;;;;;;;4.18;100.00;100809.13;5114630;28;20032;-52
2022/01/07 04:55:12;;;;;;;20.27;13.20;;;;;;;3.80;100.00;100726.03;5097061;28;20498;-49
2022/01/07 04:57:37;;;;;;;17.77;13.57;;;;;;;4.27;100.00;100799.50;5096463;28;20042;-49
2022/01/07 05:00:05;;;;;;;15.65;13.88;;;;;;;3.77;100.00;100726.94;5114787;28;20039;-52
2022/01/07 05:02:30;;;;;;;20.90;13.40;;;;;;;3.80;100.00;100716.50;5114775;28;20027;-47
2022/01/07 05:04:55;;;;;;;17.40;13.52;;;;;;;3.85;100.00;100724.28;5114520;28;20421;-48
2022/01/07 05:07:21;;;;;;;21.45;14.02;;;;;;;3.94;100.00;100735.47;5096293;28;20390;-49
2022/01/07 05:09:46;;;;;;;21.70;13.95;;;;;;;4.31;100.00;100797.75;5114784;28;20059;-52
2022/01/07 05:12:12;;;;;;;18.33;13.48;;;;;;;4.30;100.00;100789.06;5114499;28;20043;-49
2022/01/07 05:14:37;;;;;;;17.60;13.73;;;;;;;4.24;100.00;100776.06;5114674;28;20053;-50
2022/01/07 05:17:03;;;;;;;21.92;13.75;;;;;;;4.02;100.00;100738.06;5096230;28;20474;-53
2022/01/07 05:19:28;;;;;;;17.63;14.05;;;;;;;4.43;100.00;100803.72;5114309;28;20036;-49
2022/01/07 05:21:53;;;;;;;21.15;14.13;;;;;;;4.46;100.00;100808.94;5114351;28;20038;-51
2022/01/07 05:24:19;;;;;;;20.17;14.52;;;;;;;3.92;100.00;100707.72;5114273;28;20031;-50
2022/01/07 05:26:44;;;;;;;18.67;15.15;;;;;;;4.49;100.00;100797.59;5114203;28;20493;-52
2022/01/07 05:29:09;;;;;;;16.00;14.10;;;;;;;4.31;100.00;100777.78;5114268;28;20395;-49
2022/01/07 05:31:35;;;;;;;19.88;14.40;;;;;;;4.40;100.00;100779.44;5114140;28;20126;-51
2022/01/07 05:34:00;;;;;;;18.42;14.13;;;;;;;4.49;100.00;100795.84;5113901;28;20136;-48
2022/01/07 05:36:25;;;;;;;18.48;12.93;;;;;;;4.23;100.00;100735.25;5095780;28;20474;-52
2022/01/07 05:38:51;;;;;;;15.18;13.05;;;;;;;4.10;100.00;100711.94;5113957;28;20038;-53
2022/01/07 05:41:17;;;;;;;18.95;11.80;;;;;;;4.05;100.00;100714.59;5095935;28;20038;-50
2022/01/07 05:43:42;;;;;;;17.58;12.02;;;;;;;3.93;100.00;100709.47;5100237;28;20487;-50
2022/01/07 05:46:10;;;;;;;16.08;12.25;;;;;;;4.46;100.00;100782.84;5042170;28;20124;-49
2022/01/07 05:48:36;;;;;;;18.48;12.23;;;;;;;4.41;100.00;100786.34;5075246;28;20036;-48
2022/01/07 05:51:01;;;;;;;17.25;11.52;;;;;;;4.50;100.00;100784.53;5074983;28;20039;-48
2022/01/07 05:53:26;;;;;;;21.58;13.15;;;;;;;4.32;100.00;100758.63;5076236;28;20038;-52
2022/01/07 05:55:52;;;;;;;19.02;12.77;;;;;;;4.33;100.00;100759.50;5082670;28;20042;-49
2022/01/07 05:58:20;;;;;;;18.48;13.30;;;;;;;4.39;100.00;100788.13;5113748;28;20023;-50
2022/01/07 06:00:45;;;;;;;21.40;13.00;;;;;;;4.48;100.00;100801.94;5113426;28;20348;-48
2022/01/07 06:03:11;;;;;;;19.83;14.18;;;;;;;4.52;100.00;100816.66;5100279;28;20039;-52
2022/01/07 06:05:36;;;;;;;24.00;14.70;;;;;;;4.53;100.00;100802.75;5095730;28;20038;-48
2022/01/07 06:08:02;;;;;;;20.52;15.25;;;;;;;4.52;100.00;100815.81;5095383;28;20051;-48
2022/01/07 06:10:27;;;;;;;21.30;14.05;;;;;;;4.58;100.00;100813.16;5094468;28;20032;-52
2022/01/07 06:12:53;;;;;;;19.30;14.52;;;;;;;4.60;100.00;100808.81;5095267;28;20023;-50
2022/01/07 06:15:18;;;;;;;21.02;14.18;;;;;;;4.15;100.00;100724.03;5113217;28;20081;-51
2022/01/07 06:17:43;;;;;;;21.80;13.95;;;;;;;4.13;100.00;100732.75;5095021;28;20031;-49
2022/01/07 06:20:09;;;;;;;18.88;14.13;;;;;;;4.64;100.00;100828.72;5077123;28;20027;-45
2022/01/07 06:22:35;;;;;;;21.30;13.52;;;;;;;4.25;100.00;100751.75;5094998;28;20494;-49
2022/01/07 06:25:04;;;;;;;23.27;14.80;;;;;;;4.59;100.00;100809.66;5095124;28;20042;-51
2022/01/07 06:27:30;;;;;;;21.92;14.65;;;;;;;4.25;100.00;100749.16;5094941;28;20044;-50
2022/01/07 06:29:57;;;;;;;21.35;13.70;;;;;;;4.57;100.00;100792.31;5112033;28;20034;-55
2022/01/07 06:32:23;;;;;;;21.88;13.57;;;;;;;4.53;100.00;100768.00;5112468;28;20046;-51
2022/01/07 06:34:49;;;;;;;24.02;13.23;;;;;;;4.57;100.00;100793.19;5094676;28;20410;-55
2022/01/07 06:37:15;;;;;;;18.63;14.18;;;;;;;4.53;100.00;100786.25;5095068;28;20028;-51
2022/01/07 06:39:40;;;;;;;21.65;13.48;;;;;;;4.54;100.00;100814.94;5113080;28;20401;-52
2022/01/07 06:42:06;;;;;;;19.23;13.82;;;;;;;4.51;100.00;100809.75;5096291;28;20058;-53
2022/01/07 06:44:31;;;;;;;23.67;13.77;;;;;;;4.50;100.00;100813.22;5092769;28;20502;-50
2022/01/07 06:46:56;;;;;;;20.45;13.65;;;;;;;4.48;100.00;100804.56;5092338;28;20502;-51
2022/01/07 06:49:22;;;;;;;19.38;13.27;;;;;;;4.08;100.00;100757.97;5092474;28;20028;-46
2022/01/07 06:51:47;;;;;;;18.73;12.90;;;;;;;4.45;100.00;100801.97;5092477;28;20035;-48
2022/01/07 06:54:13;;;;;;;17.00;12.35;;;;;;;4.51;100.00;100816.69;5107366;28;20474;-52
2022/01/07 06:56:42;;;;;;;18.10;12.32;;;;;;;4.51;100.00;100811.47;5113011;28;20024;-49
2022/01/07 06:59:08;;;;;;;24.60;13.55;;;;;;;4.49;100.00;100808.03;5112563;28;20115;-52
2022/01/07 07:01:34;;;;;;;22.75;13.82;;;;;;;4.05;100.00;100730.22;5112716;28;20053;-48
2022/01/07 07:04:00;;;;;;;25.65;14.75;;;;;;;4.41;100.00;100808.06;5112527;28;20031;-48
2022/01/07 07:06:25;;;;;;;25.20;15.45;;;;;;;4.38;100.00;100805.50;5075591;28;20028;-49
2022/01/07 07:08:50;;;;;;;20.13;14.23;;;;;;;4.14;100.00;100761.41;5074584;28;20156;-49
2022/01/07 07:11:16;;;;;;;22.92;14.05;;;;;;;4.27;100.00;100809.91;5092064;28;20066;-50
2022/01/07 07:13:41;;;;;;;25.40;13.52;;;;;;;4.01;100.00;100754.53;5092218;28;20039;-53
2022/01/07 07:16:06;;;;;;;23.98;13.10;;;;;;;4.18;100.00;100790.88;5092113;28;20039;-51
2022/01/07 07:18:32;;;;;;;23.13;12.73;;;;;;;3.60;100.00;100700.16;5109151;28;20507;-50
2022/01/07 07:20:58;;;;;;;14.60;12.30;;;;;;;4.18;100.00;100801.28;5112396;28;20027;-51
2022/01/07 07:23:23;;;;;;;23.85;11.27;;;;;;;4.18;100.00;100790.88;5112345;28;20027;-51
2022/01/07 07:25:49;;;;;;;16.98;11.23;;;;;;;4.07;100.00;100782.28;5094915;28;20166;-52
2022/01/07 07:28:15;;;;;;;20.25;12.18;;;;;;;3.69;100.00;100709.63;5092056;28;20036;-47
2022/01/07 07:30:42;;;;;;;20.38;12.05;;;;;;;3.69;100.00;100702.69;5089854;28;20035;-48
2022/01/07 07:38:42;;;;;;;21.17;10.30;;;;;;;4.15;100.00;100786.56;5112546;28;20295;-52
2022/01/07 07:41:08;;;;;;;19.65;10.45;;;;;;;4.12;100.00;100791.78;5094879;28;20020;-48
2022/01/07 07:43:34;;;;;;;19.73;10.52;;;;;;;3.64;100.00;100721.81;5098060;28;20082;-48
2022/01/07 07:45:59;;;;;;;18.23;10.02;;;;;;;3.96;100.00;100777.16;5116047;28;20406;-48
2022/01/07 07:48:25;;;;;;;17.10;9.55;;;;;;;4.05;100.00;100807.47;5116244;28;20043;-53
2022/01/07 07:50:50;;;;;;;19.58;8.90;;;;;;;3.55;100.00;100714.94;5110975;28;20035;-50
2022/01/07 07:53:16;;;;;;;20.50;9.32;;;;;;;4.03;100.00;100806.63;5077687;28;20028;-48
2022/01/07 07:55:41;;;;;;;24.50;9.23;;;;;;;4.00;100.00;100830.94;5095521;28;20040;-49
2022/01/07 07:58:07;;;;;;;13.45;7.63;;;;;;;3.88;100.00;100808.44;5095589;28;20475;-47
2022/01/07 08:00:32;;;;;;;18.52;7.95;;;;;;;3.84;100.00;100787.63;5077470;28;20036;-51
2022/01/07 08:02:58;;;;;;;18.30;7.82;;;;;;;3.90;100.00;100796.28;5096336;28;20028;-49
2022/01/07 08:05:23;;;;;;;15.60;7.15;;;;;;;3.41;100.00;100722.78;5095529;28;20036;-50
2022/01/07 08:07:49;;;;;;;17.55;7.22;;;;;;;3.90;100.00;100817.13;5076975;28;20044;-53
2022/01/07 08:10:21;;;;;;;16.90;7.47;;;;;;;3.87;100.00;100809.31;5077420;28;20040;-49
2022/01/07 08:13:14;;;;;;;13.23;7.50;;;;;;;3.42;100.00;100734.94;5100260;28;20027;-50
2022/01/07 08:18:22;;;;;;;19.42;6.97;;;;;;;3.75;100.00;100782.47;5080232;28;20047;-50
2022/01/07 08:20:47;;;;;;;17.95;7.28;;;;;;;4.02;100.00;100810.97;5077309;28;20032;-47
2022/01/07 08:23:13;;;;;;;13.32;6.80;;;;;;;3.66;100.00;100728.75;5083776;28;20583;-48
2022/01/07 08:25:38;;;;;;;13.82;7.00;;;;;;;3.84;100.00;100748.59;5115816;28;20032;-52
2022/01/07 08:28:05;;;;;;;14.52;7.15;;;;;;;3.75;100.00;100728.69;5097501;28;20039;-49
2022/01/07 08:30:37;;;;;;;16.83;7.15;;;;;;;4.08;100.00;100781.41;5106062;28;20412;-47
2022/01/07 08:35:47;;;;;;;17.58;7.57;;;;;;;4.25;100.00;100803.00;5106696;28;20051;-48
2022/01/07 08:38:13;;;;;;;20.00;8.30;;;;;;;4.22;100.00;100810.84;5097196;28;20024;-49
2022/01/07 08:40:38;;;;;;;17.63;8.02;;;;;;;3.76;100.00;100722.63;5097042;28;20368;-50
2022/01/07 08:43:04;;;;;;;19.90;7.10;;;;;;;4.19;100.00;100797.81;5097009;28;20031;-50
2022/01/07 08:45:29;;;;;;;16.60;7.40;;;;;;;3.76;100.00;100727.81;5114392;28;20036;-52
2022/01/07 08:47:55;;;;;;;14.18;6.97;;;;;;;4.13;100.00;100798.75;5100776;28;20044;-49
2022/01/07 08:50:21;;;;;;;17.50;7.18;;;;;;;4.23;100.00;100794.34;5094655;28;20043;-48
2022/01/07 08:52:46;;;;;;;18.17;7.30;;;;;;;4.33;100.00;100801.19;5093757;28;20521;-48
2022/01/07 08:55:12;;;;;;;17.15;7.70;;;;;;;4.46;100.00;100802.84;5094563;28;20421;-48
2022/01/07 08:57:37;;;;;;;16.13;7.18;;;;;;;4.50;100.00;100784.53;5086632;28;20392;-51
2022/01/07 09:00:04;;;;;;;18.90;7.25;;;;;;;4.68;100.00;100773.09;5097633;28;20063;-50
2022/01/07 09:02:30;;;;;;;17.77;7.03;;;;;;;4.68;100.00;100765.25;5094155;28;20039;-49
2022/01/07 09:04:56;;;;;;;14.88;6.68;;;;;;;4.86;100.00;100803.34;5094181;28;20044;-53
2022/01/07 09:07:21;;;;;;;15.43;5.70;;;;;;;4.23;100.00;100688.34;5106952;28;20038;-50
2022/01/07 09:09:46;;;;;;;12.20;6.57;;;;;;;4.42;100.00;100712.50;5114689;28;20118;-47
2022/01/07 09:12:12;;;;;;;11.00;6.63;;;;;;;4.44;100.00;100709.00;5113663;28;20043;-49
2022/01/07 09:14:37;;;;;;;19.02;6.65;;;;;;;4.62;100.00;100728.81;5095752;28;20404;-49
2022/01/07 09:17:03;;;;;;;13.68;6.93;;;;;;;4.28;100.00;100641.44;5112580;28;20035;-48
2022/01/07 09:19:28;;;;;;;16.88;6.43;;;;;;;5.01;100.00;100737.97;5095204;28;20139;-50
2022/01/07 09:21:56;;;;;;;12.65;6.13;;;;;;;5.46;100.00;100805.28;5113513;28;20035;-49
2022/01/07 09:24:21;;;;;;;15.52;6.45;;;;;;;5.61;100.00;100807.69;5098080;28;20035;-52
2022/01/07 09:26:48;;;;;;;15.40;6.05;;;;;;;5.28;100.00;100721.13;5093056;28;20059;-53
2022/01/07 09:29:13;;;;;;;11.57;5.00;;;;;;;5.85;100.00;100795.19;5092828;28;20092;-49
2022/01/07 09:31:39;;;;;;;16.77;5.65;;;;;;;6.02;100.00;100791.50;5092581;28;20448;-49
2022/01/07 09:34:05;;;;;;;12.43;4.88;;;;;;;6.01;100.00;100800.22;5074587;28;20042;-50
2022/01/07 09:36:30;;;;;;;12.13;4.53;;;;;;;5.56;100.00;100730.31;5092714;28;20044;-51
2022/01/07 09:38:57;;;;;;;14.73;5.03;;;;;;;5.79;100.00;100780.47;5092540;28;20044;-50
2022/01/07 09:41:22;;;;;;;16.30;5.55;;;;;;;5.35;100.00;100720.16;5093540;28;20034;-50
2022/01/07 09:43:48;;;;;;;13.02;4.97;;;;;;;5.71;100.00;100804.97;5092759;28;20042;-51
2022/01/07 09:46:14;;;;;;;11.40;4.97;;;;;;;5.59;100.00;100813.81;5074366;28;20028;-51
2022/01/07 09:48:40;;;;;;;17.65;5.55;;;;;;;5.45;100.00;100816.63;5074157;28;20483;-50
2022/01/07 09:51:06;;;;;;;14.00;5.50;;;;;;;5.01;100.00;100735.38;5092457;28;20089;-53
2022/01/07 09:53:31;;;;;;;16.98;5.32;;;;;;;5.36;100.00;100805.41;5112621;28;20050;-52
2022/01/07 09:55:56;;;;;;;15.90;5.10;;;;;;;5.19;100.00;100789.09;5113050;28;20562;-52
2022/01/07 09:58:22;;;;;;;13.30;5.15;;;;;;;5.26;100.00;100814.22;5088793;28;20035;-48
2022/01/07 10:00:47;;;;;;;13.63;5.20;;;;;;;4.92;100.00;100748.50;5074081;28;20036;-50
2022/01/07 10:03:18;;;;;;;15.35;5.45;;;;;;;5.19;100.00;100796.91;5086798;28;20058;-49
2022/01/07 10:05:52;;;;;;;15.90;5.38;;;;;;;5.25;100.00;100810.75;5112207;28;20063;-50
2022/01/07 10:08:26;;;;;;;17.48;4.50;;;;;;;5.26;100.00;100809.00;5088690;28;20032;-51
2022/01/07 10:11:11;;;;;;;11.27;4.25;;;;;;;4.85;100.00;100725.97;5091988;28;20131;-47
2022/01/07 10:13:36;;;;;;;16.85;4.70;;;;;;;5.02;100.00;100724.91;5091805;28;20040;-51
2022/01/07 10:16:17;;;;;;;15.45;4.25;;;;;;;5.56;100.00;100803.41;5092212;28;20502;-49
2022/01/07 10:18:43;;;;;;;11.73;4.00;;;;;;;5.59;100.00;100788.59;5092023;28;20031;-49
2022/01/07 10:21:10;;;;;;;14.90;5.47;;;;;;;5.34;100.00;100766.25;5101288;28;20039;-50
2022/01/07 10:23:35;;;;;;;10.68;3.75;;;;;;;5.56;100.00;100821.69;5111826;28;20039;-55
2022/01/07 10:26:01;;;;;;;13.57;4.60;;;;;;;4.88;100.00;100726.81;5093851;28;20123;-48
2022/01/07 10:28:31;;;;;;;17.23;5.45;;;;;;;5.40;100.00;100823.63;5093824;28;20031;-49
2022/01/07 10:31:00;;;;;;;19.20;7.05;;;;;;;4.83;100.00;100723.41;5111884;28;20535;-54
2022/01/07 10:33:45;;;;;;;16.23;7.25;;;;;;;5.34;100.00;100812.41;5093954;28;20430;-52
2022/01/07 10:36:10;;;;;;;21.95;7.03;;;;;;;5.36;100.00;100813.25;5093967;28;20039;-51
2022/01/07 10:38:46;;;;;;;14.82;6.32;;;;;;;4.93;100.00;100727.59;5111792;28;20451;-50
2022/01/07 10:41:13;;;;;;;15.20;5.97;;;;;;;5.07;100.00;100717.03;5109883;28;20027;-50
2022/01/07 10:43:38;;;;;;;21.60;6.07;;;;;;;5.19;100.00;100721.25;5111787;28;20074;-48
2022/01/07 10:46:07;;;;;;;16.00;6.15;;;;;;;5.64;100.00;100810.28;5093784;28;20051;-48
2022/01/07 10:48:40;;;;;;;16.38;5.57;;;;;;;5.66;100.00;100807.66;5112310;28;20039;-51
2022/01/07 10:51:11;;;;;;;13.63;5.95;;;;;;;5.13;100.00;100724.78;5091672;28;20028;-52
2022/01/07 10:53:37;;;;;;;15.13;5.28;;;;;;;5.23;100.00;100752.47;5089569;28;20040;-48
2022/01/07 10:56:09;;;;;;;23.77;6.00;;;;;;;5.46;100.00;100805.28;5072858;28;20032;-50
2022/01/07 10:58:43;;;;;;;16.27;5.05;;;;;;;5.12;100.00;100751.75;5091484;28;20028;-52
2022/01/07 11:01:30;;;;;;;15.27;5.43;;;;;;;5.33;100.00;100793.25;5072713;28;20035;-49
2022/01/07 11:03:58;;;;;;;18.33;4.57;;;;;;;5.21;100.00;100777.75;5066211;28;20078;-53
2022/01/07 11:06:25;;;;;;;13.23;3.90;;;;;;;4.76;100.00;100707.84;5091435;28;20119;-50
2022/01/07 11:08:52;;;;;;;17.63;4.38;;;;;;;4.90;100.00;100745.06;5091364;28;20036;-52
2022/01/07 11:11:19;;;;;;;15.90;2.75;;;;;;;4.54;100.00;100709.78;5073053;28;20042;-52
2022/01/07 11:13:44;;;;;;;13.70;2.60;;;;;;;4.91;100.00;100778.94;5091234;28;20036;-48
2022/01/07 11:16:10;;;;;;;14.05;2.75;;;;;;;5.18;100.00;100805.59;5075903;28;20036;-54
2022/01/07 11:18:40;;;;;;;13.93;2.72;;;;;;;4.89;100.00;100731.16;5060363;28;20062;-51
2022/01/07 11:21:06;;;;;;;10.10;2.00;;;;;;;5.15;100.00;100750.84;5060475;28;20036;-50